createdAt,value
2023-05-21T00:00:59.469Z,15.67
2023-05-21T00:03:46.107Z,15.64
2023-05-21T00:06:21.292Z,15.60
2023-05-21T00:08:53.662Z,15.57
2023-05-21T00:11:26.162Z,15.54
2023-05-21T00:13:58.208Z,15.52
2023-05-21T00:16:30.342Z,15.49
2023-05-21T00:19:02.560Z,15.47
2023-05-21T00:21:34.372Z,15.46
2023-05-21T00:24:07.014Z,15.43
2023-05-21T00:26:39.919Z,15.41
2023-05-21T00:29:11.703Z,15.39
2023-05-21T00:31:43.475Z,15.37
2023-05-21T00:34:16.549Z,15.34
2023-05-21T00:36:49.035Z,15.30
2023-05-21T00:39:21.222Z,15.27
2023-05-21T00:41:53.193Z,15.22
2023-05-21T00:44:25.586Z,15.18
2023-05-21T00:46:57.606Z,15.15
2023-05-21T00:49:29.842Z,15.11
2023-05-21T00:52:01.850Z,15.07
2023-05-21T00:54:34.497Z,15.04
2023-05-21T00:57:08.936Z,15.00
2023-05-21T00:59:40.964Z,14.96
2023-05-21T01:02:14.380Z,14.93
2023-05-21T01:04:47.137Z,14.89
2023-05-21T01:07:18.991Z,14.83
2023-05-21T01:09:51.497Z,14.78
2023-05-21T01:12:24.086Z,14.72
2023-05-21T01:14:56.441Z,14.68
2023-05-21T01:17:29.031Z,14.65
2023-05-21T01:20:01.344Z,14.61
2023-05-21T01:22:34.525Z,14.56
2023-05-21T01:25:06.865Z,14.50
2023-05-21T01:27:38.799Z,14.45
2023-05-21T01:30:13.147Z,14.40
2023-05-21T01:32:52.180Z,14.34
2023-05-21T01:35:27.689Z,14.27
2023-05-21T01:38:04.484Z,14.21
2023-05-21T01:40:40.660Z,14.15
2023-05-21T01:43:13.548Z,14.10
2023-05-21T01:45:47.012Z,14.04
2023-05-21T01:48:18.521Z,13.96
2023-05-21T01:50:51.301Z,13.87
2023-05-21T01:53:23.305Z,13.81
2023-05-21T01:55:55.676Z,13.78
2023-05-21T01:58:28.614Z,13.73
2023-05-21T02:01:00.903Z,13.68
2023-05-21T02:03:34.157Z,13.61
2023-05-21T02:06:06.770Z,13.50
2023-05-21T02:08:38.794Z,13.42
2023-05-21T02:11:10.791Z,13.35
2023-05-21T02:13:43.162Z,13.29
2023-05-21T02:16:16.161Z,13.25
2023-05-21T02:18:51.472Z,13.19
2023-05-21T02:21:23.561Z,13.15
2023-05-21T02:23:55.852Z,13.11
2023-05-21T02:26:29.197Z,13.05
2023-05-21T02:29:01.377Z,13.01
2023-05-21T02:31:33.237Z,12.97
2023-05-21T02:34:05.197Z,12.95
2023-05-21T02:36:37.334Z,12.91
2023-05-21T02:39:09.165Z,12.86
2023-05-21T02:41:41.321Z,12.81
2023-05-21T02:44:13.108Z,12.76
2023-05-21T02:46:45.013Z,12.70
2023-05-21T02:49:16.882Z,12.61
2023-05-21T02:51:48.927Z,12.50
2023-05-21T02:54:20.998Z,12.44
2023-05-21T02:56:52.980Z,12.39
2023-05-21T02:59:25.254Z,12.34
2023-05-21T03:01:57.389Z,12.32
2023-05-21T03:04:29.551Z,12.30
2023-05-21T03:07:02.442Z,12.28
2023-05-21T03:09:34.203Z,12.29
2023-05-21T03:12:07.957Z,12.28
2023-05-21T03:14:40.457Z,12.28
2023-05-21T03:17:14.403Z,12.25
2023-05-21T03:19:46.803Z,12.23
2023-05-21T03:22:20.391Z,12.20
2023-05-21T03:24:53.556Z,12.18
2023-05-21T03:27:26.246Z,12.17
2023-05-21T03:29:59.463Z,12.16
2023-05-21T03:32:34.155Z,12.17
2023-05-21T03:35:06.744Z,12.18
2023-05-21T03:37:38.735Z,12.19
2023-05-21T03:40:12.702Z,12.20
2023-05-21T03:42:43.149Z,12.24
2023-05-21T03:45:15.340Z,12.26
2023-05-21T03:47:49.190Z,12.29
2023-05-21T03:50:21.226Z,12.34
2023-05-21T03:52:53.585Z,12.38
2023-05-21T03:55:25.496Z,12.43
2023-05-21T03:57:57.543Z,12.48
2023-05-21T04:00:29.561Z,12.53
2023-05-21T04:03:01.756Z,12.62
2023-05-21T04:05:33.966Z,12.70
2023-05-21T04:08:07.066Z,12.78
2023-05-21T04:10:38.931Z,12.85
2023-05-21T04:13:10.971Z,12.95
2023-05-21T04:15:43.772Z,13.05
2023-05-21T04:18:16.677Z,13.15
2023-05-21T04:20:50.116Z,13.25
2023-05-21T04:23:23.786Z,13.36
2023-05-21T04:25:55.914Z,13.50
2023-05-21T04:28:29.078Z,13.62
2023-05-21T04:31:01.554Z,13.75
2023-05-21T04:33:33.678Z,13.88
2023-05-21T04:36:05.948Z,14.02
2023-05-21T04:38:38.699Z,14.15
2023-05-21T04:41:10.991Z,14.31
2023-05-21T04:43:44.628Z,14.44
2023-05-21T04:46:15.210Z,14.57
2023-05-21T04:48:47.248Z,14.67
2023-05-21T04:51:19.324Z,14.80
2023-05-21T04:53:51.289Z,14.92
2023-05-21T04:56:23.670Z,15.05
2023-05-21T04:58:56.218Z,15.19
2023-05-21T05:01:29.639Z,15.35
2023-05-21T05:04:01.693Z,15.50
2023-05-21T05:06:33.707Z,15.65
2023-05-21T05:09:05.766Z,15.77
2023-05-21T05:11:37.685Z,15.91
2023-05-21T05:14:10.070Z,16.03
2023-05-21T05:16:43.006Z,16.17
2023-05-21T05:19:15.089Z,16.29
2023-05-21T05:21:47.972Z,16.41
2023-05-21T05:24:20.039Z,16.54
2023-05-21T05:26:52.074Z,16.66
2023-05-21T05:29:24.129Z,16.77
2023-05-21T05:31:56.119Z,16.85
2023-05-21T05:34:27.981Z,16.94
2023-05-21T05:36:59.936Z,17.03
2023-05-21T05:39:32.072Z,17.11
2023-05-21T05:42:04.561Z,17.19
2023-05-21T05:44:36.560Z,17.27
2023-05-21T05:47:11.024Z,17.36
2023-05-21T05:49:43.186Z,17.45
2023-05-21T05:52:15.089Z,17.54
2023-05-21T05:54:47.228Z,17.62
2023-05-21T05:57:19.007Z,17.67
2023-05-21T05:59:51.027Z,17.74
2023-05-21T06:02:23.177Z,17.85
2023-05-21T06:04:55.397Z,17.95
2023-05-21T06:07:27.420Z,18.03
2023-05-21T06:09:59.748Z,18.10
2023-05-21T06:12:31.561Z,18.18
2023-05-21T06:15:03.656Z,18.28
2023-05-21T06:17:35.787Z,18.35
2023-05-21T06:20:10.185Z,18.45
2023-05-21T06:22:42.136Z,18.53
2023-05-21T06:25:14.707Z,18.60
2023-05-21T06:27:46.657Z,18.68
2023-05-21T06:30:18.867Z,18.76
2023-05-21T06:32:50.839Z,18.84
2023-05-21T06:35:23.080Z,18.89
2023-05-21T06:37:54.980Z,18.97
2023-05-21T06:40:26.877Z,19.07
2023-05-21T06:43:00.001Z,19.17
2023-05-21T06:45:32.279Z,19.25
2023-05-21T06:48:04.310Z,19.33
2023-05-21T06:50:36.231Z,19.43
2023-05-21T06:53:08.136Z,19.49
2023-05-21T06:55:40.479Z,19.56
2023-05-21T06:58:12.887Z,19.64
2023-05-21T07:00:45.144Z,19.74
2023-05-21T07:03:17.463Z,19.83
2023-05-21T07:05:50.034Z,19.92
2023-05-21T07:08:22.225Z,19.99
2023-05-21T07:10:54.389Z,20.09
2023-05-21T07:13:26.846Z,20.22
2023-05-21T07:15:59.353Z,20.33
2023-05-21T07:18:31.157Z,20.42
2023-05-21T07:21:03.157Z,20.51
2023-05-21T07:23:35.014Z,20.62
2023-05-21T07:26:07.032Z,20.72
2023-05-21T07:28:38.876Z,20.82
2023-05-21T07:31:12.353Z,20.92
2023-05-21T07:33:44.246Z,21.02
2023-05-21T07:36:16.241Z,21.09
2023-05-21T07:38:48.311Z,21.17
2023-05-21T07:41:20.399Z,21.29
2023-05-21T07:43:52.533Z,21.38
2023-05-21T07:46:24.670Z,21.47
2023-05-21T07:48:56.808Z,21.56
2023-05-21T07:51:29.711Z,21.62
2023-05-21T07:54:01.626Z,21.71
2023-05-21T07:56:33.988Z,21.83
2023-05-21T07:59:05.843Z,21.96
2023-05-21T08:01:38.751Z,22.09
2023-05-21T08:04:10.830Z,22.23
2023-05-21T08:06:43.222Z,22.35
2023-05-21T08:09:15.247Z,22.46
2023-05-21T08:11:47.762Z,22.58
2023-05-21T08:14:19.835Z,22.67
2023-05-21T08:16:52.027Z,22.76
2023-05-21T08:19:24.355Z,22.84
2023-05-21T08:21:56.272Z,22.92
2023-05-21T08:24:28.568Z,22.99
2023-05-21T08:27:00.923Z,23.07
2023-05-21T08:29:33.584Z,23.15
2023-05-21T08:32:06.362Z,23.22
2023-05-21T08:34:38.559Z,23.28
2023-05-21T08:37:10.656Z,23.36
2023-05-21T08:39:42.775Z,23.44
2023-05-21T08:42:35.212Z,23.55
2023-05-21T08:45:09.825Z,23.66
2023-05-21T08:47:44.868Z,23.73
2023-05-21T08:50:19.363Z,23.77
2023-05-21T08:52:53.487Z,23.79
2023-05-21T08:55:26.951Z,23.89
2023-05-21T08:57:59.057Z,23.96
2023-05-21T09:00:31.101Z,24.04
2023-05-21T09:03:07.900Z,24.11
2023-05-21T09:05:41.810Z,24.17
2023-05-21T09:08:17.825Z,24.20
2023-05-21T09:10:52.219Z,24.22
2023-05-21T09:13:24.358Z,24.26
2023-05-21T09:15:56.305Z,24.30
2023-05-21T09:18:29.360Z,24.38
2023-05-21T09:21:01.618Z,24.47
2023-05-21T09:23:36.510Z,24.56
2023-05-21T09:26:13.350Z,24.64
2023-05-21T09:28:45.347Z,24.74
2023-05-21T09:31:17.416Z,24.86
2023-05-21T09:33:53.044Z,24.93
2023-05-21T09:36:25.727Z,24.99
2023-05-21T09:39:00.144Z,25.07
2023-05-21T09:41:36.982Z,25.13
2023-05-21T09:44:10.724Z,25.16
2023-05-21T09:46:43.213Z,25.14
2023-05-21T09:49:26.716Z,25.15
2023-05-21T09:52:02.152Z,25.22
2023-05-21T09:54:36.520Z,25.37
2023-05-21T09:57:09.491Z,25.48
2023-05-21T09:59:41.572Z,25.62
2023-05-21T10:02:20.922Z,25.78
2023-05-21T10:04:54.799Z,25.92
2023-05-21T10:07:28.355Z,26.09
2023-05-21T10:10:00.432Z,26.10
2023-05-21T10:12:34.151Z,26.18
2023-05-21T10:15:05.280Z,26.38
2023-05-21T10:17:37.506Z,26.46
2023-05-21T10:20:11.964Z,26.35
2023-05-21T10:22:44.261Z,26.33
2023-05-21T10:25:16.735Z,26.41
2023-05-21T10:27:49.825Z,26.46
2023-05-21T10:30:23.126Z,26.61
2023-05-21T10:32:55.864Z,26.68
2023-05-21T10:35:28.942Z,26.65
2023-05-21T10:38:02.602Z,26.81
2023-05-21T10:40:36.942Z,26.94
2023-05-21T10:43:32.175Z,27.11
2023-05-21T10:46:25.546Z,27.29
2023-05-21T10:49:09.496Z,27.39
2023-05-21T10:51:50.215Z,27.50
2023-05-21T10:54:37.161Z,27.64
2023-05-21T10:57:15.207Z,27.69
2023-05-21T10:59:48.505Z,27.74
2023-05-21T11:02:22.405Z,27.89
2023-05-21T11:05:00.961Z,27.94
2023-05-21T11:07:56.560Z,27.94
2023-05-21T11:10:39.493Z,27.80
2023-05-21T11:13:14.343Z,27.74
2023-05-21T11:16:10.996Z,27.91
2023-05-21T11:19:04.683Z,28.12
2023-05-21T11:21:38.409Z,28.24
2023-05-21T11:24:11.244Z,28.24
2023-05-21T11:27:05.897Z,28.26
2023-05-21T11:29:42.677Z,28.32
2023-05-21T11:32:20.821Z,28.35
2023-05-21T11:34:52.918Z,28.38
2023-05-21T11:37:30.419Z,28.54
2023-05-21T11:40:19.839Z,28.63
2023-05-21T11:42:56.153Z,28.76
2023-05-21T11:45:32.326Z,28.86
2023-05-21T11:48:04.675Z,28.83
2023-05-21T11:50:37.694Z,28.87
2023-05-21T11:53:09.130Z,28.88
2023-05-21T11:55:47.450Z,28.88
2023-05-21T11:58:21.729Z,28.88
2023-05-21T12:00:55.146Z,28.74
2023-05-21T12:03:27.596Z,28.67
2023-05-21T12:06:08.592Z,28.65
2023-05-21T12:08:40.584Z,28.38
2023-05-21T12:11:12.640Z,28.30
2023-05-21T12:13:44.578Z,28.37
2023-05-21T12:16:16.790Z,28.42
2023-05-21T12:18:48.713Z,28.35
2023-05-21T12:21:20.958Z,28.21
2023-05-21T12:23:52.766Z,28.18
2023-05-21T12:26:25.784Z,28.19
2023-05-21T12:28:58.233Z,28.26
2023-05-21T12:31:33.252Z,28.53
2023-05-21T12:34:05.273Z,28.75
2023-05-21T12:36:38.655Z,28.63
2023-05-21T12:39:12.663Z,28.71
2023-05-21T12:41:45.117Z,28.98
2023-05-21T12:44:16.943Z,29.31
2023-05-21T12:46:49.099Z,29.57
2023-05-21T12:49:36.075Z,29.67
2023-05-21T12:52:11.518Z,29.57
2023-05-21T12:54:45.455Z,29.42
2023-05-21T12:57:19.220Z,29.29
2023-05-21T12:59:52.963Z,29.29
2023-05-21T13:02:26.698Z,29.47
2023-05-21T13:05:00.725Z,29.57
2023-05-21T13:07:33.476Z,29.45
2023-05-21T13:10:06.405Z,29.18
2023-05-21T13:12:38.588Z,29.02
2023-05-21T13:15:11.508Z,28.93
2023-05-21T13:17:43.587Z,28.81
2023-05-21T13:20:16.837Z,28.74
2023-05-21T13:22:50.346Z,28.78
2023-05-21T13:25:25.158Z,28.92
2023-05-21T13:27:58.431Z,29.33
2023-05-21T13:30:30.899Z,29.66
2023-05-21T13:33:03.022Z,29.88
2023-05-21T13:35:35.792Z,30.08
2023-05-21T13:38:08.015Z,30.12
2023-05-21T13:40:40.489Z,30.16
2023-05-21T13:43:13.116Z,29.99
2023-05-21T13:45:45.339Z,29.66
2023-05-21T13:48:17.357Z,29.40
2023-05-21T13:50:49.301Z,29.17
2023-05-21T13:53:21.384Z,29.10
2023-05-21T13:55:53.292Z,29.20
2023-05-21T13:58:27.918Z,29.36
2023-05-21T14:01:00.170Z,29.32
2023-05-21T14:03:33.888Z,29.22
2023-05-21T14:06:06.132Z,29.41
2023-05-21T14:08:38.405Z,29.81
2023-05-21T14:11:11.834Z,30.29
2023-05-21T14:13:44.065Z,30.46
2023-05-21T14:16:15.981Z,30.58
2023-05-21T14:18:47.838Z,30.75
2023-05-21T14:21:19.852Z,30.87
2023-05-21T14:23:51.976Z,30.84
2023-05-21T14:26:23.853Z,30.60
2023-05-21T14:28:55.972Z,30.46
2023-05-21T14:31:27.958Z,30.34
2023-05-21T14:33:59.991Z,30.25
2023-05-21T14:36:32.677Z,30.25
2023-05-21T14:39:05.300Z,30.07
2023-05-21T14:41:39.325Z,30.16
2023-05-21T14:44:11.349Z,30.36
2023-05-21T14:46:43.239Z,30.32
2023-05-21T14:49:15.372Z,30.03
2023-05-21T14:51:47.771Z,29.86
2023-05-21T14:54:20.186Z,29.66
2023-05-21T14:56:52.025Z,29.36
2023-05-21T14:59:24.564Z,29.38
2023-05-21T15:01:56.550Z,29.21
2023-05-21T15:04:28.680Z,29.04
2023-05-21T15:07:00.512Z,29.15
2023-05-21T15:09:34.542Z,29.39
2023-05-21T15:12:06.789Z,29.66
2023-05-21T15:14:39.182Z,29.75
2023-05-21T15:17:10.948Z,29.75
2023-05-21T15:19:42.902Z,29.70
2023-05-21T15:22:14.764Z,29.69
2023-05-21T15:24:47.096Z,29.46
2023-05-21T15:27:19.581Z,29.32
2023-05-21T15:29:51.806Z,29.25
2023-05-21T15:32:23.591Z,29.21
2023-05-21T15:34:55.806Z,29.07
2023-05-21T15:37:27.788Z,29.05
2023-05-21T15:39:59.864Z,29.11
2023-05-21T15:42:32.020Z,29.29
2023-05-21T15:45:04.165Z,29.31
2023-05-21T15:47:36.148Z,29.25
2023-05-21T15:50:12.422Z,29.24
2023-05-21T15:52:45.030Z,29.10
2023-05-21T15:55:20.668Z,28.90
2023-05-21T15:57:52.629Z,28.70
2023-05-21T16:00:25.170Z,28.53
2023-05-21T16:02:57.017Z,28.42
2023-05-21T16:05:29.920Z,28.23
2023-05-21T16:08:02.053Z,28.07
2023-05-21T16:10:34.407Z,27.90
2023-05-21T16:13:06.274Z,27.79
2023-05-21T16:15:38.404Z,27.76
2023-05-21T16:18:11.804Z,27.71
2023-05-21T16:20:44.191Z,27.62
2023-05-21T16:23:16.173Z,27.50
2023-05-21T16:25:48.331Z,27.36
2023-05-21T16:28:21.003Z,27.24
2023-05-21T16:30:54.624Z,27.15
2023-05-21T16:33:26.778Z,26.94
2023-05-21T16:35:59.310Z,26.77
2023-05-21T16:38:32.315Z,26.54
2023-05-21T16:41:05.314Z,26.38
2023-05-21T16:43:37.522Z,26.18
2023-05-21T16:46:09.464Z,25.98
2023-05-21T16:48:42.791Z,25.86
2023-05-21T16:51:14.626Z,25.68
2023-05-21T16:53:46.422Z,25.50
2023-05-21T16:56:18.663Z,25.38
2023-05-21T16:58:50.526Z,25.24
2023-05-21T17:01:22.442Z,25.10
2023-05-21T17:03:56.135Z,24.91
2023-05-21T17:06:28.387Z,24.69
2023-05-21T17:09:00.277Z,24.51
2023-05-21T17:11:35.221Z,24.32
2023-05-21T17:14:07.082Z,24.17
2023-05-21T17:16:43.162Z,24.00
2023-05-21T17:19:14.966Z,23.87
2023-05-21T17:21:47.009Z,23.78
2023-05-21T17:24:18.851Z,23.65
2023-05-21T17:26:50.862Z,23.52
2023-05-21T17:29:22.721Z,23.43
2023-05-21T17:31:54.727Z,23.34
2023-05-21T17:34:29.605Z,23.26
2023-05-21T17:37:02.001Z,23.16
2023-05-21T17:39:33.850Z,23.06
2023-05-21T17:42:06.963Z,22.97
2023-05-21T17:44:38.982Z,22.85
2023-05-21T17:47:12.020Z,22.76
2023-05-21T17:49:43.902Z,22.67
2023-05-21T17:52:15.814Z,22.55
2023-05-21T17:54:47.694Z,22.44
2023-05-21T17:57:20.774Z,22.33
2023-05-21T17:59:52.712Z,22.25
2023-05-21T18:02:25.625Z,22.19
2023-05-21T18:04:57.493Z,22.13
2023-05-21T18:07:29.874Z,22.07
2023-05-21T18:10:01.594Z,21.99
2023-05-21T18:12:33.907Z,21.90
2023-05-21T18:15:07.806Z,21.79
2023-05-21T18:17:40.122Z,21.69
2023-05-21T18:20:13.956Z,21.61
2023-05-21T18:22:46.471Z,21.54
2023-05-21T18:25:18.610Z,21.48
2023-05-21T18:27:50.955Z,21.42
2023-05-21T18:30:22.898Z,21.36
2023-05-21T18:32:55.274Z,21.29
2023-05-21T18:35:27.324Z,21.22
2023-05-21T18:37:59.604Z,21.13
2023-05-21T18:40:33.354Z,21.03
2023-05-21T18:43:06.589Z,20.95
2023-05-21T18:45:38.456Z,20.87
2023-05-21T18:48:12.109Z,20.78
2023-05-21T18:50:42.426Z,20.69
2023-05-21T18:53:14.314Z,20.58
2023-05-21T18:55:46.104Z,20.50
2023-05-21T18:58:18.014Z,20.42
2023-05-21T19:00:49.821Z,20.34
2023-05-21T19:03:21.903Z,20.28
2023-05-21T19:05:53.692Z,20.22
2023-05-21T19:08:25.714Z,20.14
2023-05-21T19:10:57.962Z,20.07
2023-05-21T19:13:30.071Z,19.99
2023-05-21T19:16:02.538Z,19.91
2023-05-21T19:18:35.122Z,19.82
2023-05-21T19:21:07.004Z,19.72
2023-05-21T19:23:51.929Z,19.64
2023-05-21T19:26:24.710Z,19.55
2023-05-21T19:28:56.822Z,19.47
2023-05-21T19:31:28.809Z,19.40
2023-05-21T19:34:00.912Z,19.33
2023-05-21T19:36:44.462Z,19.26
2023-05-21T19:39:24.078Z,19.17
2023-05-21T19:41:56.192Z,19.10
2023-05-21T19:44:28.276Z,19.01
2023-05-21T19:47:00.139Z,18.94
2023-05-21T19:49:32.217Z,18.88
2023-05-21T19:52:04.122Z,18.80
2023-05-21T19:54:36.971Z,18.74
2023-05-21T19:57:10.890Z,18.66
2023-05-21T19:59:44.269Z,18.57
2023-05-21T20:02:17.144Z,18.48
2023-05-21T20:04:50.326Z,18.40
2023-05-21T20:07:22.116Z,18.32
2023-05-21T20:09:54.088Z,18.25
2023-05-21T20:12:25.943Z,18.18
2023-05-21T20:14:59.553Z,18.11
2023-05-21T20:17:34.348Z,18.04
2023-05-21T20:20:11.274Z,17.95
2023-05-21T20:22:43.264Z,17.86
2023-05-21T20:25:15.201Z,17.72
2023-05-21T20:27:47.563Z,17.59
2023-05-21T20:30:19.520Z,17.47
2023-05-21T20:32:51.453Z,17.41
2023-05-21T20:35:24.764Z,17.36
2023-05-21T20:37:56.690Z,17.31
2023-05-21T20:40:28.665Z,17.23
2023-05-21T20:43:01.765Z,17.12
2023-05-21T20:45:33.722Z,17.06
2023-05-21T20:48:06.181Z,17.01
2023-05-21T20:50:38.538Z,16.97
2023-05-21T20:53:10.693Z,16.89
2023-05-21T20:55:44.610Z,16.83
2023-05-21T20:58:17.016Z,16.75
2023-05-21T21:00:50.614Z,16.71
2023-05-21T21:03:21.701Z,16.67
2023-05-21T21:05:56.900Z,16.59
2023-05-21T21:08:28.813Z,16.53
2023-05-21T21:11:00.657Z,16.43
2023-05-21T21:13:32.433Z,16.37
2023-05-21T21:16:04.548Z,16.32
2023-05-21T21:18:36.478Z,16.29
2023-05-21T21:21:08.502Z,16.25
2023-05-21T21:23:40.307Z,16.19
2023-05-21T21:26:12.170Z,16.14
2023-05-21T21:28:45.425Z,16.09
2023-05-21T21:31:18.737Z,16.07
2023-05-21T21:33:50.711Z,16.04
2023-05-21T21:36:22.694Z,15.99
2023-05-21T21:38:54.641Z,15.96
2023-05-21T21:41:26.635Z,15.92
2023-05-21T21:44:01.145Z,15.88
2023-05-21T21:46:33.645Z,15.83
2023-05-21T21:49:05.867Z,15.77
2023-05-21T21:51:38.283Z,15.73
2023-05-21T21:54:10.115Z,15.68
2023-05-21T21:56:42.189Z,15.65
2023-05-21T21:59:14.239Z,15.63
2023-05-21T22:01:46.623Z,15.61
2023-05-21T22:04:18.968Z,15.57
2023-05-21T22:06:52.006Z,15.54
2023-05-21T22:09:23.947Z,15.51
2023-05-21T22:11:56.671Z,15.44
2023-05-21T22:14:28.467Z,15.40
2023-05-21T22:17:00.856Z,15.35
2023-05-21T22:19:33.655Z,15.30
2023-05-21T22:22:06.006Z,15.23
2023-05-21T22:24:37.812Z,15.18
2023-05-21T22:27:10.064Z,15.11
2023-05-21T22:29:42.075Z,15.07
2023-05-21T22:32:14.213Z,15.03
2023-05-21T22:34:46.073Z,14.98
2023-05-21T22:37:19.341Z,14.94
2023-05-21T22:39:51.279Z,14.90
2023-05-21T22:42:23.106Z,14.87
2023-05-21T22:44:54.939Z,14.85
2023-05-21T22:47:26.878Z,14.81
2023-05-21T22:50:01.566Z,14.76
2023-05-21T22:52:34.468Z,14.72
2023-05-21T22:55:08.184Z,14.68
2023-05-21T22:57:40.174Z,14.63
2023-05-21T23:00:13.614Z,14.59
2023-05-21T23:02:46.140Z,14.52
2023-05-21T23:05:18.194Z,14.44
2023-05-21T23:07:50.401Z,14.39
2023-05-21T23:10:22.244Z,14.31
2023-05-21T23:12:54.495Z,14.22
2023-05-21T23:15:26.891Z,14.14
2023-05-21T23:17:59.713Z,14.09
2023-05-21T23:20:32.459Z,14.05
2023-05-21T23:23:04.370Z,14.01
2023-05-21T23:25:36.960Z,13.98
2023-05-21T23:28:08.943Z,13.96
2023-05-21T23:30:40.941Z,13.95
2023-05-21T23:33:14.066Z,13.93
2023-05-21T23:35:45.968Z,13.92
2023-05-21T23:38:17.926Z,13.90
2023-05-21T23:40:49.763Z,13.88
2023-05-21T23:43:22.194Z,13.83
2023-05-21T23:45:54.034Z,13.78
2023-05-21T23:48:26.093Z,13.74
2023-05-21T23:50:58.040Z,13.72
2023-05-21T23:53:30.098Z,13.69
2023-05-21T23:56:01.988Z,13.64
2023-05-21T23:58:33.854Z,13.60
